createdAt,value
2024-02-08T00:02:09.122Z,4.74
2024-02-08T00:04:36.533Z,4.70
2024-02-08T00:07:03.952Z,4.46
2024-02-08T00:09:31.309Z,4.75
2024-02-08T00:11:58.605Z,5.15
2024-02-08T00:14:39.819Z,4.81
2024-02-08T00:17:07.497Z,4.54
2024-02-08T00:19:34.991Z,4.95
2024-02-08T00:22:02.346Z,5.39
2024-02-08T00:24:29.660Z,5.84
2024-02-08T00:26:56.966Z,6.69
2024-02-08T00:29:24.300Z,5.11
2024-02-08T00:31:51.647Z,4.91
2024-02-08T00:34:19.000Z,5.09
2024-02-08T00:36:46.346Z,4.38
2024-02-08T00:39:13.668Z,4.43
2024-02-08T00:41:40.996Z,4.21
2024-02-08T00:44:08.364Z,4.07
2024-02-08T00:46:35.743Z,4.09
2024-02-08T00:49:03.118Z,4.39
2024-02-08T00:51:30.418Z,4.06
2024-02-08T00:53:57.735Z,3.82
2024-02-08T00:56:25.069Z,4.15
2024-02-08T00:58:54.374Z,4.07
2024-02-08T01:01:21.719Z,6.73
2024-02-08T01:03:49.194Z,5.78
2024-02-08T01:06:18.612Z,6.57
2024-02-08T01:08:45.987Z,10.10
2024-02-08T01:11:13.521Z,13.86
2024-02-08T01:13:40.954Z,12.89
2024-02-08T01:16:08.274Z,6.90
2024-02-08T01:18:35.655Z,4.92
2024-02-08T01:21:03.019Z,5.05
2024-02-08T01:23:30.333Z,5.49
2024-02-08T01:25:57.666Z,14.65
2024-02-08T01:28:24.991Z,19.09
2024-02-08T01:30:52.376Z,15.97
2024-02-08T01:33:19.740Z,11.54
2024-02-08T01:35:47.043Z,7.37
2024-02-08T01:41:27.101Z,5.70
2024-02-08T01:43:54.412Z,4.89
2024-02-08T01:46:21.762Z,3.81
2024-02-08T01:48:51.123Z,3.53
2024-02-08T01:51:18.463Z,3.83
2024-02-08T01:53:45.794Z,3.97
2024-02-08T01:56:13.252Z,3.29
2024-02-08T01:58:40.662Z,3.37
2024-02-08T02:01:07.999Z,4.62
2024-02-08T02:03:35.433Z,3.59
2024-02-08T02:06:02.916Z,3.18
2024-02-08T02:08:30.259Z,3.05
2024-02-08T02:10:57.662Z,2.72
2024-02-08T02:13:25.034Z,2.97
2024-02-08T02:15:52.361Z,2.96
2024-02-08T02:18:19.825Z,3.18
2024-02-08T02:20:47.240Z,3.01
2024-02-08T02:23:14.612Z,3.11
2024-02-08T02:25:41.945Z,2.96
2024-02-08T02:28:09.307Z,2.86
2024-02-08T02:30:36.734Z,2.84
2024-02-08T02:33:04.152Z,2.88
2024-02-08T02:35:31.508Z,2.97
2024-02-08T02:37:58.837Z,2.96
2024-02-08T02:40:26.220Z,2.89
2024-02-08T02:42:53.558Z,2.82
2024-02-08T02:45:20.866Z,2.72
2024-02-08T02:47:48.246Z,2.64
2024-02-08T02:50:15.726Z,2.85
2024-02-08T02:52:43.151Z,2.85
2024-02-08T02:55:10.474Z,3.96
2024-02-08T02:57:37.790Z,10.00
2024-02-08T03:00:05.114Z,16.67
2024-02-08T03:02:32.468Z,21.58
2024-02-08T03:04:59.836Z,28.02
2024-02-08T03:07:27.251Z,26.29
2024-02-08T03:09:54.621Z,24.36
2024-02-08T03:12:21.945Z,21.00
2024-02-08T03:14:49.245Z,30.37
2024-02-08T03:23:43.163Z,32.45
2024-02-08T03:26:10.496Z,32.03
2024-02-08T03:28:37.875Z,26.20
2024-02-08T03:31:05.214Z,32.45
2024-02-08T03:33:32.591Z,31.97
2024-02-08T03:35:59.916Z,33.47
2024-02-08T03:38:27.233Z,30.32
2024-02-08T03:40:54.604Z,29.62
2024-02-08T03:43:21.921Z,34.76
2024-02-08T03:45:49.246Z,26.29
2024-02-08T03:48:16.692Z,23.67
2024-02-08T03:50:44.219Z,27.21
2024-02-08T03:53:11.702Z,18.34
2024-02-08T03:55:39.135Z,16.14
2024-02-08T03:58:06.482Z,15.34
2024-02-08T04:00:33.813Z,15.51
2024-02-08T04:03:02.831Z,12.74
2024-02-08T04:05:30.267Z,14.25
2024-02-08T04:07:57.620Z,18.27
2024-02-08T04:10:24.962Z,15.48
2024-02-08T04:12:52.314Z,15.07
2024-02-08T04:15:28.845Z,16.78
2024-02-08T04:17:56.240Z,12.12
2024-02-08T04:20:23.588Z,9.61
2024-02-08T04:22:50.981Z,9.11
2024-02-08T04:25:18.317Z,8.69
2024-02-08T04:27:45.640Z,7.04
2024-02-08T04:30:12.967Z,6.91
2024-02-08T04:32:40.440Z,6.06
2024-02-08T04:35:07.998Z,9.48
2024-02-08T04:37:35.443Z,8.20
2024-02-08T04:40:02.783Z,6.45
2024-02-08T04:42:30.103Z,5.47
2024-02-08T04:44:57.416Z,5.54
2024-02-08T04:47:26.775Z,5.96
2024-02-08T04:49:54.127Z,7.25
2024-02-08T04:52:21.534Z,5.16
2024-02-08T04:54:48.873Z,5.78
2024-02-08T04:57:16.196Z,5.29
2024-02-08T04:59:43.632Z,4.60
2024-02-08T05:02:11.079Z,4.69
2024-02-08T05:04:38.637Z,4.81
2024-02-08T05:07:06.187Z,4.26
2024-02-08T05:09:33.695Z,4.80
2024-02-08T05:12:01.008Z,5.44
2024-02-08T05:14:28.448Z,5.55
2024-02-08T05:16:56.461Z,5.35
2024-02-08T05:19:23.995Z,4.41
2024-02-08T05:21:51.376Z,4.32
2024-02-08T05:24:18.708Z,4.78
2024-02-08T05:26:46.048Z,4.83
2024-02-08T05:29:13.369Z,4.12
2024-02-08T05:31:40.909Z,4.01
2024-02-08T05:34:16.398Z,4.29
2024-02-08T05:36:45.417Z,6.43
2024-02-08T05:39:12.823Z,6.42
2024-02-08T05:41:40.123Z,5.62
2024-02-08T05:44:07.453Z,6.19
2024-02-08T05:46:34.855Z,4.53
2024-02-08T05:49:02.273Z,4.43
2024-02-08T05:51:29.609Z,4.84
2024-02-08T05:53:56.938Z,4.15
2024-02-08T05:56:24.228Z,3.69
2024-02-08T05:58:51.541Z,3.42
2024-02-08T06:01:18.977Z,3.67
2024-02-08T06:03:46.427Z,4.08
2024-02-08T06:06:13.896Z,4.11
2024-02-08T06:08:41.508Z,4.14
2024-02-08T06:11:08.858Z,4.18
2024-02-08T06:13:36.306Z,3.98
2024-02-08T06:16:03.693Z,4.06
2024-02-08T06:18:31.121Z,3.75
2024-02-08T06:20:58.472Z,3.97
2024-02-08T06:23:25.817Z,4.02
2024-02-08T06:25:53.152Z,3.93
2024-02-08T06:28:20.629Z,4.33
2024-02-08T06:30:48.224Z,4.92
2024-02-08T06:33:15.720Z,5.31
2024-02-08T06:35:43.065Z,8.16
2024-02-08T06:38:12.358Z,13.62
2024-02-08T06:40:39.762Z,12.24
2024-02-08T06:43:07.143Z,10.40
2024-02-08T06:45:34.523Z,10.45
2024-02-08T06:48:02.022Z,12.37
2024-02-08T06:50:29.451Z,16.84
2024-02-08T06:52:56.759Z,22.17
2024-02-08T06:55:24.199Z,21.69
2024-02-08T06:57:51.623Z,20.82
2024-02-08T07:00:18.965Z,19.00
2024-02-08T07:02:46.311Z,19.49
2024-02-08T07:05:13.886Z,19.44
2024-02-08T07:07:43.411Z,14.41
2024-02-08T07:10:10.812Z,9.20
2024-02-08T07:12:38.211Z,10.67
2024-02-08T07:15:05.516Z,10.54
2024-02-08T07:17:32.870Z,8.02
2024-02-08T07:20:00.409Z,5.46
2024-02-08T07:22:27.960Z,3.78
2024-02-08T07:24:55.348Z,3.76
2024-02-08T07:27:22.658Z,4.71
2024-02-08T07:29:49.988Z,8.68
2024-02-08T07:32:17.278Z,11.02
2024-02-08T07:34:44.802Z,9.67
2024-02-08T07:37:12.357Z,4.83
2024-02-08T07:39:39.696Z,3.87
2024-02-08T07:42:07.014Z,4.00
2024-02-08T07:44:37.299Z,3.56
2024-02-08T07:47:05.865Z,3.76
2024-02-08T07:49:33.300Z,4.22
2024-02-08T07:52:00.811Z,4.01
2024-02-08T07:54:28.137Z,3.41
2024-02-08T07:56:57.498Z,3.39
2024-02-08T07:59:24.859Z,3.23
2024-02-08T08:01:52.570Z,2.99
2024-02-08T08:04:20.124Z,2.81
2024-02-08T08:06:47.723Z,2.22
2024-02-08T08:09:15.517Z,2.40
2024-02-08T08:11:42.913Z,2.33
2024-02-08T08:14:10.272Z,2.23
2024-02-08T08:16:37.681Z,2.37
2024-02-08T08:19:05.165Z,2.87
2024-02-08T08:21:32.516Z,3.59
2024-02-08T08:23:59.841Z,3.91
2024-02-08T08:26:27.187Z,3.77
2024-02-08T08:28:54.506Z,4.31
2024-02-08T08:31:21.890Z,3.87
2024-02-08T08:33:49.282Z,6.70
2024-02-08T08:36:16.669Z,8.20
2024-02-08T08:38:43.989Z,11.58
2024-02-08T08:41:13.484Z,15.00
2024-02-08T08:43:41.013Z,12.09
2024-02-08T08:46:08.445Z,11.40
2024-02-08T08:48:35.923Z,10.99
2024-02-08T08:51:03.291Z,12.97
2024-02-08T08:53:30.619Z,12.74
2024-02-08T08:55:58.011Z,12.21
2024-02-08T08:58:25.395Z,13.00
2024-02-08T09:00:52.767Z,12.27
2024-02-08T09:03:20.124Z,8.58
2024-02-08T09:05:47.443Z,5.03
2024-02-08T09:08:14.861Z,4.88
2024-02-08T09:10:42.881Z,3.48
2024-02-08T09:13:10.575Z,2.81
2024-02-08T09:15:37.957Z,2.78
2024-02-08T09:18:05.314Z,2.92
2024-02-08T09:20:32.721Z,2.61
2024-02-08T09:23:00.074Z,2.55
2024-02-08T09:25:35.671Z,2.69
2024-02-08T09:28:07.484Z,3.13
2024-02-08T09:30:36.847Z,3.99
2024-02-08T09:33:04.227Z,4.99
2024-02-08T09:35:31.822Z,7.11
2024-02-08T09:37:59.287Z,5.07
2024-02-08T09:40:26.744Z,4.77
2024-02-08T09:42:56.455Z,4.56
2024-02-08T09:45:23.905Z,6.68
2024-02-08T09:47:51.293Z,7.34
2024-02-08T09:50:18.643Z,7.24
2024-02-08T09:52:50.141Z,7.17
2024-02-08T09:55:19.510Z,9.48
2024-02-08T09:57:47.305Z,7.98
2024-02-08T10:00:14.664Z,7.10
2024-02-08T10:02:43.989Z,5.95
2024-02-08T10:05:11.406Z,6.12
2024-02-08T10:07:38.977Z,4.90
2024-02-08T10:10:06.369Z,3.15
2024-02-08T10:12:33.718Z,2.63
2024-02-08T10:15:01.830Z,2.68
2024-02-08T10:17:29.620Z,2.41
2024-02-08T10:19:57.084Z,2.42
2024-02-08T10:22:24.481Z,2.54
2024-02-08T10:24:51.841Z,2.73
2024-02-08T10:27:19.174Z,2.77
2024-02-08T10:29:46.501Z,2.84
2024-02-08T10:32:13.820Z,2.48
2024-02-08T10:34:42.244Z,2.37
2024-02-08T10:37:10.044Z,2.27
2024-02-08T10:39:37.382Z,2.06
2024-02-08T10:42:04.699Z,1.96
2024-02-08T10:44:32.029Z,1.99
2024-02-08T10:47:11.576Z,2.46
2024-02-08T10:49:39.082Z,1.95
2024-02-08T10:52:06.619Z,2.04
2024-02-08T10:54:36.763Z,2.06
2024-02-08T10:57:05.466Z,1.94
2024-02-08T10:59:32.794Z,1.79
2024-02-08T11:02:00.292Z,1.84
2024-02-08T11:04:27.732Z,1.92
2024-02-08T11:06:55.238Z,1.79
2024-02-08T11:09:22.606Z,1.76
2024-02-08T11:11:49.929Z,1.78
2024-02-08T11:14:17.276Z,1.70
2024-02-08T11:16:44.634Z,1.75
2024-02-08T11:19:12.083Z,2.06
2024-02-08T11:21:39.452Z,1.94
2024-02-08T11:24:06.778Z,2.01
2024-02-08T11:26:34.275Z,2.14
2024-02-08T11:29:01.761Z,2.52
2024-02-08T11:31:29.187Z,2.46
2024-02-08T11:33:56.830Z,2.33
2024-02-08T11:36:24.348Z,2.38
2024-02-08T11:38:51.671Z,2.43
2024-02-08T11:41:18.995Z,2.51
2024-02-08T11:43:46.358Z,2.14
2024-02-08T11:46:13.730Z,2.22
2024-02-08T11:48:41.233Z,2.18
2024-02-08T11:51:08.692Z,2.40
2024-02-08T11:53:36.038Z,2.40
2024-02-08T11:56:03.357Z,2.47
2024-02-08T11:58:30.754Z,2.70
2024-02-08T12:00:58.257Z,2.82
2024-02-08T12:03:25.708Z,2.59
2024-02-08T12:05:53.042Z,2.85
2024-02-08T12:08:21.412Z,2.82
2024-02-08T12:10:49.838Z,2.87
2024-02-08T12:13:17.273Z,3.56
2024-02-08T12:15:44.652Z,4.02
2024-02-08T12:18:12.117Z,4.55
2024-02-08T12:20:39.511Z,5.53
2024-02-08T12:23:06.819Z,5.73
2024-02-08T12:25:34.244Z,5.38
2024-02-08T12:28:01.582Z,4.90
2024-02-08T12:30:28.923Z,4.55
2024-02-08T12:32:56.274Z,4.47
2024-02-08T12:35:23.660Z,4.62
2024-02-08T12:37:50.981Z,4.29
2024-02-08T12:40:18.441Z,4.45
2024-02-08T12:42:45.794Z,4.49
2024-02-08T12:45:13.152Z,3.98
2024-02-08T12:47:40.508Z,3.96
2024-02-08T12:50:14.991Z,3.89
2024-02-08T12:52:49.070Z,3.76
2024-02-08T12:55:16.414Z,4.03
2024-02-08T12:57:43.796Z,3.67
2024-02-08T13:00:11.104Z,3.12
2024-02-08T13:02:38.408Z,3.17
2024-02-08T13:05:06.088Z,3.17
2024-02-08T13:07:36.810Z,2.95
2024-02-08T13:10:06.023Z,2.94
2024-02-08T13:12:33.412Z,3.30
2024-02-08T13:15:00.732Z,3.17
2024-02-08T13:17:28.167Z,2.54
2024-02-08T13:19:55.652Z,2.35
2024-02-08T13:22:23.033Z,2.18
2024-02-08T13:24:50.915Z,1.92
2024-02-08T13:27:18.243Z,2.31
2024-02-08T13:29:45.553Z,2.27
2024-02-08T13:32:12.874Z,2.60
2024-02-08T13:34:40.257Z,2.53
2024-02-08T13:37:07.659Z,2.57
2024-02-08T13:39:34.996Z,2.66
2024-02-08T13:42:02.399Z,2.82
2024-02-08T13:44:29.816Z,3.36
2024-02-08T13:46:57.240Z,3.26
2024-02-08T13:49:24.741Z,3.10
2024-02-08T13:51:52.256Z,3.21
2024-02-08T13:54:19.616Z,3.38
2024-02-08T13:56:46.975Z,3.15
2024-02-08T13:59:14.342Z,3.15
2024-02-08T14:01:41.803Z,2.98
2024-02-08T14:04:09.257Z,3.01
2024-02-08T14:06:36.649Z,2.78
2024-02-08T14:09:03.961Z,3.04
2024-02-08T14:11:31.324Z,2.69
2024-02-08T14:13:58.648Z,2.78
2024-02-08T14:16:25.982Z,2.64
2024-02-08T14:18:53.560Z,3.03
2024-02-08T14:21:21.145Z,2.96
2024-02-08T14:23:48.442Z,3.02
2024-02-08T14:26:15.761Z,2.91
2024-02-08T14:28:43.097Z,2.95
2024-02-08T14:31:10.489Z,3.13
2024-02-08T14:33:38.650Z,2.94
2024-02-08T14:36:05.976Z,2.92
2024-02-08T14:38:33.309Z,2.90
2024-02-08T14:41:00.617Z,2.98
2024-02-08T14:43:27.935Z,2.85
2024-02-08T14:45:55.288Z,2.77
2024-02-08T14:48:22.869Z,2.61
2024-02-08T14:50:50.173Z,2.76
2024-02-08T14:53:17.485Z,2.68
2024-02-08T14:55:44.821Z,2.66
2024-02-08T14:58:12.183Z,2.75
2024-02-08T15:00:39.539Z,2.85
2024-02-08T15:03:06.922Z,3.02
2024-02-08T15:05:34.372Z,3.01
2024-02-08T15:08:01.753Z,2.82
2024-02-08T15:10:29.107Z,2.57
2024-02-08T15:12:56.443Z,2.50
2024-02-08T15:15:23.895Z,2.85
2024-02-08T15:17:51.236Z,2.32
2024-02-08T15:20:18.615Z,2.15
2024-02-08T15:22:46.122Z,2.49
2024-02-08T15:25:14.594Z,2.45
2024-02-08T15:27:41.959Z,2.53
2024-02-08T15:30:09.293Z,2.60
2024-02-08T15:32:36.626Z,2.57
2024-02-08T15:35:04.086Z,2.80
2024-02-08T15:37:31.521Z,73.87
2024-02-08T15:39:58.966Z,14.44
2024-02-08T15:42:26.291Z,3.16
2024-02-08T15:44:54.561Z,3.35
2024-02-08T15:47:22.411Z,3.20
2024-02-08T15:49:49.885Z,3.04
2024-02-08T15:52:17.749Z,3.04
2024-02-08T15:54:45.725Z,2.70
2024-02-08T15:57:13.834Z,2.47
2024-02-08T15:59:41.277Z,2.52
2024-02-08T16:02:08.792Z,2.78
2024-02-08T16:04:36.254Z,2.75
2024-02-08T16:07:03.763Z,3.02
2024-02-08T16:09:31.200Z,3.05
2024-02-08T16:11:58.544Z,3.10
2024-02-08T16:14:25.857Z,3.23
2024-02-08T16:16:53.171Z,3.37
2024-02-08T16:19:20.680Z,3.50
2024-02-08T16:21:48.073Z,3.63
2024-02-08T16:24:15.448Z,3.60
2024-02-08T16:26:42.809Z,3.55
2024-02-08T16:29:10.197Z,3.71
2024-02-08T16:31:37.698Z,3.74
2024-02-08T16:34:05.122Z,3.84
2024-02-08T16:36:32.518Z,3.87
2024-02-08T16:39:01.800Z,3.45
2024-02-08T16:41:29.129Z,3.46
2024-02-08T16:43:56.445Z,3.87
2024-02-08T16:46:24.114Z,4.04
2024-02-08T16:48:51.484Z,4.08
2024-02-08T16:51:18.843Z,3.78
2024-02-08T16:53:46.219Z,3.69
2024-02-08T16:56:13.545Z,3.96
2024-02-08T16:58:40.921Z,3.66
2024-02-08T17:01:08.363Z,3.99
2024-02-08T17:03:35.719Z,3.88
2024-02-08T17:06:03.149Z,4.14
2024-02-08T17:08:30.476Z,4.01
2024-02-08T17:10:57.810Z,4.04
2024-02-08T17:13:46.546Z,4.02
2024-02-08T17:16:33.142Z,3.88
2024-02-08T17:19:19.803Z,3.77
2024-02-08T17:22:05.846Z,3.72
2024-02-08T17:24:52.170Z,3.67
2024-02-08T17:27:37.881Z,3.73
2024-02-08T17:30:23.991Z,3.64
2024-02-08T17:33:09.682Z,3.72
2024-02-08T17:35:58.004Z,3.78
2024-02-08T17:38:44.084Z,3.53
2024-02-08T17:41:30.488Z,3.67
2024-02-08T17:44:16.634Z,3.91
2024-02-08T17:47:02.335Z,3.95
2024-02-08T17:49:48.675Z,3.87
2024-02-08T17:52:34.477Z,3.96
2024-02-08T17:55:20.896Z,4.13
2024-02-08T17:58:06.690Z,3.95
2024-02-08T18:00:52.694Z,3.89
2024-02-08T18:03:38.886Z,3.53
2024-02-08T18:06:25.477Z,3.77
2024-02-08T18:09:11.413Z,4.08
2024-02-08T18:11:59.326Z,4.36
2024-02-08T18:14:45.286Z,4.37
2024-02-08T18:17:31.472Z,4.44
2024-02-08T18:20:17.392Z,4.98
2024-02-08T18:23:04.091Z,4.75
2024-02-08T18:25:49.984Z,4.94
2024-02-08T18:28:36.131Z,4.84
2024-02-08T18:31:21.814Z,5.03
2024-02-08T18:34:08.025Z,5.42
2024-02-08T18:36:54.046Z,4.99
2024-02-08T18:39:40.332Z,5.12
2024-02-08T18:42:26.089Z,5.26
2024-02-08T18:45:12.115Z,5.17
2024-02-08T18:47:57.874Z,4.94
2024-02-08T18:50:44.381Z,5.50
2024-02-08T18:53:30.177Z,5.43
2024-02-08T18:56:16.456Z,5.05
2024-02-08T18:59:04.303Z,5.19
2024-02-08T19:01:57.369Z,5.47
2024-02-08T19:04:46.858Z,5.05
2024-02-08T19:07:33.139Z,4.85
2024-02-08T19:10:19.021Z,5.01
2024-02-08T19:13:05.087Z,4.86
2024-02-08T19:15:50.959Z,5.13
2024-02-08T19:18:37.102Z,4.91
2024-02-08T19:21:22.893Z,5.02
2024-02-08T19:24:09.113Z,5.05
2024-02-08T19:26:54.936Z,5.23
2024-02-08T19:29:40.811Z,5.34
2024-02-08T19:32:26.638Z,5.21
2024-02-08T19:35:12.946Z,5.30
2024-02-08T19:37:59.015Z,5.56
2024-02-08T19:40:45.358Z,5.62
2024-02-08T19:43:31.320Z,5.42
2024-02-08T19:46:17.306Z,5.84
2024-02-08T19:49:03.191Z,5.89
2024-02-08T19:51:49.255Z,5.35
2024-02-08T19:54:35.045Z,5.73
2024-02-08T19:57:21.427Z,5.52
2024-02-08T20:00:07.397Z,5.77
2024-02-08T20:02:54.085Z,5.68
2024-02-08T20:05:40.742Z,6.03
2024-02-08T20:08:27.032Z,5.83
2024-02-08T20:11:12.832Z,5.93
2024-02-08T20:13:58.794Z,6.25
2024-02-08T20:16:44.712Z,6.10
2024-02-08T20:19:31.103Z,6.43
2024-02-08T20:22:16.847Z,6.19
2024-02-08T20:25:03.131Z,6.40
2024-02-08T20:27:48.932Z,6.19
2024-02-08T20:30:34.873Z,6.40
2024-02-08T20:33:20.878Z,6.33
2024-02-08T20:36:07.120Z,6.63
2024-02-08T20:38:52.816Z,6.54
2024-02-08T20:41:39.230Z,6.65
2024-02-08T20:44:24.914Z,6.46
2024-02-08T20:47:11.167Z,6.15
2024-02-08T20:49:57.755Z,6.25
2024-02-08T20:52:43.776Z,6.17
2024-02-08T20:55:29.582Z,6.77
2024-02-08T20:58:16.198Z,6.22
2024-02-08T21:01:02.234Z,6.55
2024-02-08T21:03:50.212Z,6.25
2024-02-08T21:06:35.981Z,6.23
2024-02-08T21:09:23.885Z,6.13
2024-02-08T21:12:09.581Z,5.69
2024-02-08T21:14:55.737Z,6.05
2024-02-08T21:17:41.539Z,6.04
2024-02-08T21:20:27.796Z,5.72
2024-02-08T21:23:13.524Z,5.98
2024-02-08T21:25:59.894Z,5.27
2024-02-08T21:28:45.812Z,5.25
2024-02-08T21:31:31.970Z,5.16
2024-02-08T21:34:19.885Z,4.85
2024-02-08T21:37:06.213Z,4.92
2024-02-08T21:39:51.837Z,4.73
2024-02-08T21:42:38.080Z,4.73
2024-02-08T21:45:23.781Z,4.93
2024-02-08T21:48:10.082Z,5.07
2024-02-08T21:50:55.949Z,5.00
2024-02-08T21:53:42.188Z,4.83
2024-02-08T21:56:27.930Z,4.98
2024-02-08T21:59:14.176Z,5.10
2024-02-08T22:01:59.892Z,5.45
2024-02-08T22:04:46.131Z,5.58
2024-02-08T22:07:31.948Z,5.50
2024-02-08T22:10:18.070Z,5.70
2024-02-08T22:13:05.148Z,5.96
2024-02-08T22:15:51.536Z,6.07
2024-02-08T22:18:37.206Z,5.97
2024-02-08T22:21:23.331Z,6.13
2024-02-08T22:24:10.403Z,6.27
2024-02-08T22:26:56.926Z,6.15
2024-02-08T22:29:43.095Z,6.59
2024-02-08T22:32:28.823Z,6.50
2024-02-08T22:35:17.409Z,6.75
2024-02-08T22:38:03.410Z,6.25
2024-02-08T22:40:49.474Z,6.58
2024-02-08T22:43:35.290Z,6.62
2024-02-08T22:46:21.718Z,6.84
2024-02-08T22:49:09.328Z,7.23
2024-02-08T22:51:55.614Z,6.93
2024-02-08T22:54:41.494Z,7.29
2024-02-08T22:57:27.649Z,7.47
2024-02-08T23:00:13.404Z,7.78
2024-02-08T23:02:59.529Z,8.25
2024-02-08T23:05:45.234Z,7.53
2024-02-08T23:08:31.468Z,8.16
2024-02-08T23:11:16.924Z,8.38
2024-02-08T23:14:03.064Z,8.55
2024-02-08T23:16:49.397Z,8.89
2024-02-08T23:19:35.101Z,9.22
2024-02-08T23:22:22.077Z,9.55
2024-02-08T23:25:08.706Z,9.21
2024-02-08T23:27:54.606Z,9.60
2024-02-08T23:30:40.340Z,9.65
2024-02-08T23:33:26.613Z,9.98
2024-02-08T23:36:12.500Z,10.46
2024-02-08T23:38:58.806Z,9.72
2024-02-08T23:41:44.426Z,10.27
2024-02-08T23:44:30.697Z,10.46
2024-02-08T23:47:16.503Z,10.34
2024-02-08T23:50:02.667Z,9.98
2024-02-08T23:52:48.483Z,10.15
2024-02-08T23:55:34.763Z,10.73
2024-02-08T23:58:20.525Z,10.36
